createdAt,value
2023-02-17T00:00:40.059Z,7.43
2023-02-17T00:03:07.253Z,5.60
2023-02-17T00:05:34.348Z,11.13
2023-02-17T00:08:01.464Z,3.65
2023-02-17T00:10:28.659Z,3.42
2023-02-17T00:12:55.764Z,4.18
2023-02-17T00:15:22.866Z,3.72
2023-02-17T00:17:50.112Z,4.63
2023-02-17T00:20:17.355Z,3.30
2023-02-17T00:22:44.491Z,3.50
2023-02-17T00:25:11.716Z,5.55
2023-02-17T00:27:38.983Z,3.90
2023-02-17T00:30:06.513Z,3.20
2023-02-17T00:32:33.896Z,5.15
2023-02-17T00:35:01.001Z,8.23
2023-02-17T00:37:28.125Z,3.78
2023-02-17T00:39:55.249Z,3.72
2023-02-17T00:42:22.327Z,4.60
2023-02-17T00:44:49.434Z,3.50
2023-02-17T00:47:16.584Z,5.63
2023-02-17T00:49:43.825Z,3.65
2023-02-17T00:52:10.944Z,3.60
2023-02-17T00:54:40.697Z,3.88
2023-02-17T00:57:07.788Z,3.13
2023-02-17T00:59:34.940Z,4.25
2023-02-17T01:02:02.104Z,3.45
2023-02-17T01:04:29.268Z,3.42
2023-02-17T01:06:56.442Z,7.38
2023-02-17T01:09:23.552Z,3.60
2023-02-17T01:11:51.004Z,3.15
2023-02-17T01:14:18.199Z,5.03
2023-02-17T01:16:47.075Z,3.20
2023-02-17T01:19:17.052Z,3.58
2023-02-17T01:21:44.218Z,2.80
2023-02-17T01:24:12.000Z,3.60
2023-02-17T01:26:39.920Z,2.63
2023-02-17T01:29:07.758Z,3.20
2023-02-17T01:31:34.991Z,3.42
2023-02-17T01:34:03.173Z,6.28
2023-02-17T01:36:30.364Z,2.88
2023-02-17T01:38:57.467Z,4.05
2023-02-17T01:41:28.879Z,5.35
2023-02-17T01:44:12.892Z,4.38
2023-02-17T01:46:40.985Z,4.00
2023-02-17T01:49:14.391Z,3.15
2023-02-17T01:51:41.869Z,2.47
2023-02-17T01:54:11.855Z,6.70
2023-02-17T01:56:41.386Z,2.85
2023-02-17T01:59:11.218Z,3.45
2023-02-17T02:01:38.477Z,3.20
2023-02-17T02:04:06.681Z,2.80
2023-02-17T02:06:35.441Z,3.45
2023-02-17T02:09:07.560Z,3.78
2023-02-17T02:11:35.450Z,2.78
2023-02-17T02:14:06.815Z,3.47
2023-02-17T02:16:33.975Z,2.92
2023-02-17T02:19:06.922Z,2.83
2023-02-17T02:21:34.310Z,3.40
2023-02-17T02:24:12.891Z,3.13
2023-02-17T02:26:49.225Z,2.45
2023-02-17T02:29:31.690Z,3.40
2023-02-17T02:32:17.677Z,3.03
2023-02-17T02:34:56.989Z,3.63
2023-02-17T02:37:27.414Z,4.85
2023-02-17T02:39:56.071Z,3.03
2023-02-17T02:42:24.446Z,2.90
2023-02-17T02:44:51.653Z,2.47
2023-02-17T02:47:37.680Z,3.17
2023-02-17T02:50:05.068Z,2.92
2023-02-17T02:52:32.193Z,2.70
2023-02-17T02:55:19.182Z,3.17
2023-02-17T02:57:49.050Z,4.05
2023-02-17T03:00:24.875Z,2.63
2023-02-17T03:02:56.947Z,4.10
2023-02-17T03:05:31.518Z,3.58
2023-02-17T03:08:09.179Z,2.78
2023-02-17T03:10:36.344Z,3.58
2023-02-17T03:13:03.848Z,2.63
2023-02-17T03:15:33.523Z,2.92
2023-02-17T03:18:01.324Z,3.15
2023-02-17T03:20:30.659Z,2.95
2023-02-17T03:22:57.934Z,3.63
2023-02-17T03:25:25.156Z,3.53
2023-02-17T03:27:52.303Z,2.97
2023-02-17T03:30:19.664Z,4.32
2023-02-17T03:32:47.183Z,2.33
2023-02-17T03:35:14.436Z,2.47
2023-02-17T03:37:41.554Z,3.35
2023-02-17T03:40:09.179Z,3.45
2023-02-17T03:42:36.396Z,2.42
2023-02-17T03:45:03.560Z,2.65
2023-02-17T03:47:30.704Z,2.53
2023-02-17T03:49:57.823Z,2.95
2023-02-17T03:52:24.975Z,2.67
2023-02-17T03:54:53.214Z,3.80
2023-02-17T03:57:20.316Z,3.60
2023-02-17T03:59:47.483Z,3.33
2023-02-17T04:02:14.605Z,3.20
2023-02-17T04:04:41.982Z,3.65
2023-02-17T04:07:09.083Z,2.80
2023-02-17T04:09:36.266Z,2.42
2023-02-17T04:12:03.428Z,3.47
2023-02-17T04:14:30.535Z,3.38
2023-02-17T04:16:57.633Z,2.05
2023-02-17T04:19:24.762Z,4.38
2023-02-17T04:21:54.540Z,4.43
2023-02-17T04:24:21.666Z,2.70
2023-02-17T04:26:48.762Z,2.90
2023-02-17T04:29:15.932Z,2.17
2023-02-17T04:31:43.134Z,5.95
2023-02-17T04:34:10.311Z,3.53
2023-02-17T04:36:37.400Z,3.78
2023-02-17T04:39:05.472Z,4.18
2023-02-17T04:41:32.656Z,3.97
2023-02-17T04:43:59.781Z,6.50
2023-02-17T04:46:27.054Z,6.22
2023-02-17T04:48:54.301Z,3.10
2023-02-17T04:51:21.431Z,2.03
2023-02-17T04:53:48.571Z,2.63
2023-02-17T04:56:15.944Z,2.65
2023-02-17T04:58:43.062Z,2.28
2023-02-17T05:01:10.203Z,2.97
2023-02-17T05:03:37.387Z,3.33
2023-02-17T05:06:04.929Z,3.30
2023-02-17T05:08:32.159Z,2.10
2023-02-17T05:10:59.329Z,2.47
2023-02-17T05:13:27.591Z,2.15
2023-02-17T05:15:55.019Z,3.53
2023-02-17T05:18:22.164Z,2.97
2023-02-17T05:20:49.275Z,3.78
2023-02-17T05:23:16.432Z,2.80
2023-02-17T05:25:43.634Z,4.07
2023-02-17T05:28:10.734Z,2.63
2023-02-17T05:30:37.981Z,2.78
2023-02-17T05:33:05.207Z,2.70
2023-02-17T05:35:34.151Z,6.15
2023-02-17T05:38:02.099Z,2.42
2023-02-17T05:40:29.287Z,2.17
2023-02-17T05:42:56.443Z,3.33
2023-02-17T05:45:23.550Z,5.97
2023-02-17T05:47:50.634Z,5.13
2023-02-17T05:50:17.761Z,14.10
2023-02-17T05:52:46.480Z,43.20
2023-02-17T05:55:14.847Z,28.10
2023-02-17T05:57:41.948Z,27.55
2023-02-17T06:00:09.381Z,34.40
2023-02-17T06:02:36.501Z,7.38
2023-02-17T06:05:03.818Z,5.25
2023-02-17T06:07:31.074Z,4.70
2023-02-17T06:09:58.513Z,4.22
2023-02-17T06:12:25.930Z,5.30
2023-02-17T06:14:53.073Z,10.18
2023-02-17T06:17:20.208Z,4.68
2023-02-17T06:19:47.356Z,3.58
2023-02-17T06:22:14.548Z,2.63
2023-02-17T06:24:41.733Z,5.47
2023-02-17T06:27:09.029Z,4.00
2023-02-17T06:29:36.220Z,4.05
2023-02-17T06:32:04.577Z,6.18
2023-02-17T06:34:31.800Z,4.22
2023-02-17T06:36:59.110Z,7.85
2023-02-17T06:39:26.245Z,4.45
2023-02-17T06:41:57.473Z,4.93
2023-02-17T06:44:24.633Z,3.30
2023-02-17T06:46:51.818Z,3.92
2023-02-17T06:49:19.046Z,3.90
2023-02-17T06:51:46.162Z,4.93
2023-02-17T06:54:13.272Z,7.25
2023-02-17T06:56:40.495Z,4.20
2023-02-17T06:59:07.763Z,2.50
2023-02-17T07:01:37.559Z,2.67
2023-02-17T07:04:04.852Z,4.72
2023-02-17T07:06:32.045Z,4.10
2023-02-17T07:08:59.170Z,3.65
2023-02-17T07:11:27.313Z,2.97
2023-02-17T07:13:54.578Z,3.10
2023-02-17T07:16:21.734Z,3.22
2023-02-17T07:18:49.083Z,3.47
2023-02-17T07:21:16.340Z,3.25
2023-02-17T07:23:43.462Z,4.05
2023-02-17T07:26:11.801Z,3.42
2023-02-17T07:28:39.830Z,4.30
2023-02-17T07:31:16.067Z,3.88
2023-02-17T07:33:48.196Z,3.20
2023-02-17T07:36:16.391Z,3.90
2023-02-17T07:38:43.565Z,5.05
2023-02-17T07:41:25.487Z,2.63
2023-02-17T07:43:56.055Z,3.03
2023-02-17T07:46:26.389Z,2.92
2023-02-17T07:48:53.898Z,3.92
2023-02-17T07:51:24.852Z,2.60
2023-02-17T07:53:52.660Z,3.28
2023-02-17T07:56:21.550Z,2.45
2023-02-17T07:58:49.237Z,2.45
2023-02-17T08:01:24.923Z,3.05
2023-02-17T08:03:54.537Z,2.50
2023-02-17T08:06:25.473Z,3.00
2023-02-17T08:09:17.124Z,3.65
2023-02-17T08:12:03.291Z,2.78
2023-02-17T08:14:31.408Z,2.90
2023-02-17T08:17:00.253Z,3.30
2023-02-17T08:19:46.558Z,3.38
2023-02-17T08:22:18.729Z,3.40
2023-02-17T08:24:46.261Z,4.72
2023-02-17T08:27:23.622Z,3.13
2023-02-17T08:29:51.224Z,4.05
2023-02-17T08:32:21.284Z,4.80
2023-02-17T08:34:48.727Z,3.20
2023-02-17T08:37:16.075Z,3.35
2023-02-17T08:39:43.290Z,2.58
2023-02-17T08:42:11.412Z,4.40
2023-02-17T08:44:38.809Z,2.92
2023-02-17T08:47:06.810Z,3.50
2023-02-17T08:49:35.367Z,2.75
2023-02-17T08:52:02.731Z,4.40
2023-02-17T08:54:29.919Z,2.97
2023-02-17T08:57:01.424Z,4.00
2023-02-17T08:59:28.700Z,3.33
2023-02-17T09:01:58.551Z,3.20
2023-02-17T09:04:26.340Z,4.25
2023-02-17T09:06:56.641Z,2.95
2023-02-17T09:09:28.033Z,9.75
2023-02-17T09:11:56.607Z,5.40
2023-02-17T09:14:24.211Z,3.45
2023-02-17T09:16:53.284Z,4.90
2023-02-17T09:19:23.566Z,3.25
2023-02-17T09:21:50.777Z,24.45
2023-02-17T09:24:21.121Z,14.55
2023-02-17T09:26:48.348Z,8.52
2023-02-17T09:29:15.562Z,7.63
2023-02-17T09:31:43.016Z,6.15
2023-02-17T09:34:10.299Z,12.18
2023-02-17T09:36:41.265Z,3.95
2023-02-17T09:39:17.817Z,4.57
2023-02-17T09:41:47.784Z,4.70
2023-02-17T09:44:20.425Z,4.35
2023-02-17T09:47:05.655Z,7.28
2023-02-17T09:49:39.241Z,4.70
2023-02-17T09:52:09.791Z,4.80
2023-02-17T09:54:59.954Z,2.97
2023-02-17T09:57:28.884Z,4.25
2023-02-17T10:02:33.324Z,2.40
2023-02-17T10:05:03.566Z,7.10
2023-02-17T10:07:33.490Z,8.90
2023-02-17T10:10:09.149Z,3.65
2023-02-17T10:12:39.081Z,4.97
2023-02-17T10:15:18.009Z,3.60
2023-02-17T10:18:00.969Z,2.65
2023-02-17T10:20:34.261Z,2.85
2023-02-17T10:23:22.387Z,4.03
2023-02-17T10:25:52.975Z,2.83
2023-02-17T10:28:38.891Z,4.88
2023-02-17T10:31:11.471Z,4.60
2023-02-17T10:33:44.812Z,3.58
2023-02-17T10:36:24.008Z,3.42
2023-02-17T10:38:58.166Z,3.13
2023-02-17T10:41:28.374Z,4.43
2023-02-17T10:43:55.775Z,4.15
2023-02-17T10:46:28.418Z,3.05
2023-02-17T10:48:56.611Z,3.00
2023-02-17T10:51:25.936Z,4.40
2023-02-17T10:53:55.974Z,5.22
2023-02-17T10:56:26.737Z,4.55
2023-02-17T10:58:55.103Z,4.78
2023-02-17T11:01:23.456Z,4.60
2023-02-17T11:04:01.571Z,7.53
2023-02-17T11:06:33.690Z,5.00
2023-02-17T11:09:09.439Z,6.38
2023-02-17T11:11:37.614Z,6.97
2023-02-17T11:14:04.791Z,3.72
2023-02-17T11:16:40.180Z,4.63
2023-02-17T11:19:18.606Z,3.25
2023-02-17T11:21:46.061Z,6.90
2023-02-17T11:24:13.532Z,3.33
2023-02-17T11:26:43.132Z,4.40
2023-02-17T11:29:22.231Z,3.47
2023-02-17T11:32:04.853Z,3.10
2023-02-17T11:34:34.602Z,5.07
2023-02-17T11:37:15.708Z,2.70
2023-02-17T11:39:44.488Z,3.72
2023-02-17T11:42:26.911Z,3.70
2023-02-17T11:44:55.387Z,3.92
2023-02-17T11:47:36.008Z,3.50
2023-02-17T11:50:03.576Z,7.32
2023-02-17T11:52:45.985Z,3.50
2023-02-17T11:55:51.867Z,3.95
2023-02-17T12:00:49.611Z,3.03
2023-02-17T12:03:25.885Z,3.40
2023-02-17T12:05:53.109Z,4.07
2023-02-17T12:08:27.477Z,3.55
2023-02-17T12:10:57.354Z,4.60
2023-02-17T12:13:27.493Z,3.75
2023-02-17T12:15:57.631Z,5.03
2023-02-17T12:18:50.653Z,4.15
2023-02-17T12:21:35.722Z,4.65
2023-02-17T12:24:05.927Z,5.10
2023-02-17T12:26:42.419Z,3.55
2023-02-17T12:29:19.015Z,3.35
2023-02-17T12:32:15.833Z,4.90
2023-02-17T12:34:45.072Z,4.45
2023-02-17T12:37:20.102Z,3.00
2023-02-17T12:39:51.798Z,5.38
2023-02-17T12:42:24.584Z,4.63
2023-02-17T12:44:56.001Z,4.20
2023-02-17T12:47:29.940Z,4.35
2023-02-17T12:50:02.781Z,4.97
2023-02-17T12:52:35.635Z,3.60
2023-02-17T12:55:22.170Z,7.28
2023-02-17T12:57:56.242Z,4.85
2023-02-17T13:00:25.652Z,4.20
2023-02-17T13:02:53.288Z,4.90
2023-02-17T13:05:26.448Z,4.45
2023-02-17T13:07:53.559Z,6.15
2023-02-17T13:10:23.337Z,4.43
2023-02-17T13:12:58.369Z,4.13
2023-02-17T13:15:27.251Z,4.68
2023-02-17T13:17:57.260Z,5.15
2023-02-17T13:20:26.744Z,3.88
2023-02-17T13:23:04.796Z,3.53
2023-02-17T13:25:37.241Z,4.95
2023-02-17T13:28:17.393Z,5.63
2023-02-17T13:30:45.923Z,4.07
2023-02-17T13:33:22.423Z,3.83
2023-02-17T13:35:50.103Z,3.65
2023-02-17T13:38:33.358Z,4.35
2023-02-17T13:41:02.407Z,5.35
2023-02-17T13:43:32.901Z,3.85
2023-02-17T13:46:00.351Z,5.80
2023-02-17T13:48:29.455Z,4.28
2023-02-17T13:50:57.776Z,5.47
2023-02-17T13:53:32.853Z,5.35
2023-02-17T13:58:33.852Z,8.02
2023-02-17T14:01:01.958Z,12.35
2023-02-17T14:03:41.373Z,9.55
2023-02-17T14:06:13.354Z,13.32
2023-02-17T14:08:41.798Z,13.15
2023-02-17T14:11:10.526Z,14.13
2023-02-17T14:13:38.941Z,17.02
2023-02-17T14:16:07.359Z,12.95
2023-02-17T14:18:36.763Z,12.57
2023-02-17T14:21:11.991Z,13.38
2023-02-17T14:23:49.291Z,8.35
2023-02-17T14:26:26.792Z,10.80
2023-02-17T14:28:54.857Z,9.38
2023-02-17T14:31:22.526Z,13.30
2023-02-17T14:33:53.596Z,9.80
2023-02-17T14:36:28.449Z,6.75
2023-02-17T14:38:56.416Z,8.45
2023-02-17T14:41:23.617Z,7.72
2023-02-17T14:43:50.764Z,10.75
2023-02-17T14:46:20.233Z,9.27
2023-02-17T14:48:50.789Z,6.00
2023-02-17T14:51:19.327Z,7.28
2023-02-17T14:53:47.150Z,10.80
2023-02-17T14:56:23.255Z,10.77
2023-02-17T14:58:50.465Z,5.72
2023-02-17T15:01:18.944Z,8.30
2023-02-17T15:03:46.601Z,5.22
2023-02-17T15:06:15.685Z,4.57
2023-02-17T15:08:44.034Z,5.63
2023-02-17T15:11:17.492Z,5.43
2023-02-17T15:13:44.668Z,6.47
2023-02-17T15:16:13.130Z,5.50
2023-02-17T15:18:43.736Z,6.85
2023-02-17T15:21:37.368Z,6.13
2023-02-17T15:24:07.133Z,5.88
2023-02-17T15:26:34.315Z,7.60
2023-02-17T15:29:02.199Z,7.50
2023-02-17T15:31:31.284Z,4.03
2023-02-17T15:33:59.632Z,5.60
2023-02-17T15:36:27.741Z,4.80
2023-02-17T15:38:55.610Z,5.93
2023-02-17T15:41:25.367Z,4.22
2023-02-17T15:43:53.491Z,4.05
2023-02-17T15:46:21.432Z,5.70
2023-02-17T15:48:49.817Z,5.28
2023-02-17T15:51:19.779Z,5.47
2023-02-17T15:53:47.392Z,4.72
2023-02-17T15:56:26.238Z,4.28
2023-02-17T15:58:58.144Z,4.13
2023-02-17T16:01:29.464Z,5.50
2023-02-17T16:03:57.355Z,5.35
2023-02-17T16:06:27.641Z,3.88
2023-02-17T16:08:55.264Z,4.63
2023-02-17T16:11:23.246Z,6.70
2023-02-17T16:13:50.432Z,5.80
2023-02-17T16:16:24.667Z,7.45
2023-02-17T16:18:51.993Z,4.30
2023-02-17T16:21:19.185Z,4.63
2023-02-17T16:23:46.543Z,7.93
2023-02-17T16:26:22.348Z,4.03
2023-02-17T16:28:49.621Z,3.10
2023-02-17T16:31:16.755Z,4.60
2023-02-17T16:33:44.004Z,7.07
2023-02-17T16:36:15.378Z,7.38
2023-02-17T16:38:43.986Z,2.50
2023-02-17T16:41:15.157Z,4.78
2023-02-17T16:43:42.805Z,4.60
2023-02-17T16:46:18.994Z,6.80
2023-02-17T16:48:49.170Z,7.70
2023-02-17T16:51:16.920Z,8.73
2023-02-17T16:53:44.254Z,5.57
2023-02-17T16:56:20.581Z,5.35
2023-02-17T16:58:50.001Z,5.25
2023-02-17T17:01:17.178Z,2.78
2023-02-17T17:03:44.951Z,6.63
2023-02-17T17:06:23.401Z,7.78
2023-02-17T17:08:50.931Z,7.05
2023-02-17T17:11:19.595Z,4.28
2023-02-17T17:13:47.265Z,5.95
2023-02-17T17:16:16.679Z,6.93
2023-02-17T17:18:43.897Z,12.52
2023-02-17T17:21:14.826Z,5.30
2023-02-17T17:23:42.049Z,5.38
2023-02-17T17:26:19.836Z,7.70
2023-02-17T17:28:49.038Z,7.50
2023-02-17T17:31:20.108Z,6.40
2023-02-17T17:33:48.375Z,14.30
2023-02-17T17:36:35.732Z,7.22
2023-02-17T17:41:30.554Z,8.55
2023-02-17T17:43:58.388Z,9.32
2023-02-17T17:46:28.349Z,6.88
2023-02-17T17:48:56.482Z,6.95
2023-02-17T17:51:24.001Z,6.68
2023-02-17T17:53:51.543Z,8.15
2023-02-17T17:56:24.977Z,7.82
2023-02-17T17:58:52.451Z,5.68
2023-02-17T18:01:20.473Z,5.75
2023-02-17T18:03:48.018Z,6.30
2023-02-17T18:06:20.568Z,6.28
2023-02-17T18:08:48.870Z,4.80
2023-02-17T18:11:17.242Z,9.85
2023-02-17T18:13:45.232Z,9.60
2023-02-17T18:16:12.853Z,6.70
2023-02-17T18:18:40.466Z,6.60
2023-02-17T18:21:07.836Z,6.82
2023-02-17T18:23:34.944Z,6.88
2023-02-17T18:26:02.222Z,6.88
2023-02-17T18:28:29.576Z,7.35
2023-02-17T18:30:57.029Z,5.80
2023-02-17T18:33:24.438Z,6.57
2023-02-17T18:35:52.424Z,5.35
2023-02-17T18:38:19.535Z,7.63
2023-02-17T18:40:46.644Z,6.40
2023-02-17T18:43:14.904Z,8.20
2023-02-17T18:45:42.161Z,6.40
2023-02-17T18:48:09.370Z,5.57
2023-02-17T18:50:36.652Z,5.22
2023-02-17T18:53:05.384Z,6.55
2023-02-17T18:55:32.699Z,5.60
2023-02-17T18:57:59.916Z,9.57
2023-02-17T19:00:27.078Z,7.43
2023-02-17T19:02:54.258Z,5.22
2023-02-17T19:05:21.625Z,7.03
2023-02-17T19:07:48.796Z,5.30
2023-02-17T19:10:15.991Z,5.40
2023-02-17T19:12:43.119Z,8.25
2023-02-17T19:15:10.833Z,5.40
2023-02-17T19:17:37.953Z,5.53
2023-02-17T19:20:05.702Z,5.47
2023-02-17T19:22:36.262Z,5.28
2023-02-17T19:25:03.430Z,6.65
2023-02-17T19:27:30.708Z,6.80
2023-02-17T19:29:57.906Z,7.50
2023-02-17T19:32:25.100Z,5.72
2023-02-17T19:34:52.518Z,7.47
2023-02-17T19:37:19.729Z,5.82
2023-02-17T19:39:46.863Z,8.60
2023-02-17T19:42:14.261Z,6.80
2023-02-17T19:44:41.421Z,5.60
2023-02-17T19:47:08.565Z,6.93
2023-02-17T19:49:35.807Z,6.53
2023-02-17T19:52:02.933Z,5.80
2023-02-17T19:54:30.120Z,9.00
2023-02-17T19:56:57.530Z,5.43
2023-02-17T19:59:24.797Z,5.95
2023-02-17T20:01:51.950Z,6.38
2023-02-17T20:04:20.421Z,7.88
2023-02-17T20:06:48.133Z,6.25
2023-02-17T20:09:16.810Z,5.55
2023-02-17T20:11:44.828Z,6.80
2023-02-17T20:14:12.475Z,6.45
2023-02-17T20:16:40.148Z,6.32
2023-02-17T20:19:08.049Z,5.40
2023-02-17T20:21:36.470Z,5.05
2023-02-17T20:24:03.617Z,5.93
2023-02-17T20:26:38.859Z,5.30
2023-02-17T20:29:06.004Z,4.93
2023-02-17T20:31:33.249Z,6.50
2023-02-17T20:34:02.968Z,6.25
2023-02-17T20:36:30.116Z,5.90
2023-02-17T20:38:57.262Z,6.15
2023-02-17T20:41:24.851Z,6.97
2023-02-17T20:43:52.215Z,4.82
2023-02-17T20:46:22.643Z,7.93
2023-02-17T20:48:50.375Z,5.97
2023-02-17T20:51:17.633Z,5.85
2023-02-17T20:53:44.812Z,6.43
2023-02-17T20:56:16.544Z,5.32
2023-02-17T20:58:43.652Z,5.72
2023-02-17T21:01:10.942Z,4.78
2023-02-17T21:03:38.631Z,5.28
2023-02-17T21:06:07.062Z,7.63
2023-02-17T21:08:34.397Z,5.72
2023-02-17T21:11:01.805Z,5.40
2023-02-17T21:13:29.865Z,7.30
2023-02-17T21:15:57.080Z,4.78
2023-02-17T21:18:24.484Z,6.40
2023-02-17T21:20:51.591Z,6.18
2023-02-17T21:23:20.218Z,7.15
2023-02-17T21:25:47.442Z,5.35
2023-02-17T21:28:17.217Z,5.90
2023-02-17T21:30:46.896Z,7.13
2023-02-17T21:33:14.258Z,6.35
2023-02-17T21:35:41.497Z,5.22
2023-02-17T21:38:10.284Z,7.10
2023-02-17T21:40:37.787Z,5.72
2023-02-17T21:43:23.958Z,6.93
2023-02-17T21:45:51.114Z,6.38
2023-02-17T21:48:18.324Z,5.32
2023-02-17T21:50:45.719Z,4.90
2023-02-17T21:53:13.130Z,5.13
2023-02-17T21:55:40.224Z,4.57
2023-02-17T21:58:07.463Z,6.40
2023-02-17T22:00:34.843Z,5.47
2023-02-17T22:03:01.959Z,6.55
2023-02-17T22:05:32.864Z,5.10
2023-02-17T22:08:00.250Z,4.55
2023-02-17T22:10:27.424Z,6.60
2023-02-17T22:12:54.536Z,6.72
2023-02-17T22:15:21.685Z,7.82
2023-02-17T22:17:48.764Z,5.18
2023-02-17T22:20:15.978Z,6.72
2023-02-17T22:22:43.070Z,5.10
2023-02-17T22:25:10.296Z,6.38
2023-02-17T22:27:37.628Z,6.50
2023-02-17T22:30:05.654Z,8.57
2023-02-17T22:32:32.863Z,9.30
2023-02-17T22:34:59.994Z,10.40
2023-02-17T22:37:27.092Z,9.10
2023-02-17T22:39:55.212Z,7.53
2023-02-17T22:42:23.471Z,8.82
2023-02-17T22:44:50.954Z,8.02
2023-02-17T22:47:18.096Z,9.00
2023-02-17T22:49:45.353Z,5.82
2023-02-17T22:52:12.501Z,7.63
2023-02-17T22:54:40.953Z,5.88
2023-02-17T22:57:08.253Z,23.15
2023-02-17T22:59:35.438Z,6.35
2023-02-17T23:02:02.556Z,5.45
2023-02-17T23:04:29.833Z,8.10
2023-02-17T23:06:57.211Z,7.80
2023-02-17T23:09:24.330Z,6.10
2023-02-17T23:11:53.746Z,5.78
2023-02-17T23:14:20.904Z,6.40
2023-02-17T23:16:48.181Z,6.53
2023-02-17T23:19:17.471Z,6.57
2023-02-17T23:21:45.561Z,6.93
2023-02-17T23:24:13.014Z,6.18
2023-02-17T23:26:40.540Z,6.93
2023-02-17T23:29:07.679Z,5.47
2023-02-17T23:31:34.955Z,5.68
2023-02-17T23:34:02.281Z,7.00
2023-02-17T23:36:29.529Z,8.13
2023-02-17T23:38:58.582Z,5.88
2023-02-17T23:41:25.755Z,5.03
2023-02-17T23:43:52.908Z,7.95
2023-02-17T23:46:20.761Z,5.00
2023-02-17T23:48:47.920Z,4.82
2023-02-17T23:51:19.412Z,4.85
2023-02-17T23:53:46.791Z,6.60
2023-02-17T23:56:15.641Z,8.52
2023-02-17T23:58:42.898Z,7.28
